Time;durP1;ratioP1;P1;durP2;ratioP2;P2;SDS_P1;SDS_P2;PMS_P1;PMS_P2;Temp;Humidity;BMP_temperature;BMP_pressure;BME280_temperature;BME280_humidity;BME280_pressure;Samples;Min_cycle;Max_cycle;Signal;HPM_P1;HPM_P2
2023/07/26 00:00:12;;;;;;;1.25;0.90;;;;;21.10;100981.00;;;;5111216;28;20333;-81
2023/07/26 00:02:40;;;;;;;1.50;0.90;;;;;21.10;100975.00;;;;5110216;28;20276;-81
2023/07/26 00:05:08;;;;;;;1.35;1.13;;;;;21.00;100972.00;;;;5111278;28;20288;-81
2023/07/26 00:07:37;;;;;;;1.65;1.05;;;;;21.00;100974.00;;;;5110663;28;20308;-81
2023/07/26 00:10:05;;;;;;;1.95;1.13;;;;;21.00;100966.00;;;;5111286;28;20288;-82
2023/07/26 00:12:32;;;;;;;2.13;1.30;;;;;21.00;100964.00;;;;5110581;28;20765;-81
2023/07/26 00:14:59;;;;;;;1.65;1.30;;;;;21.00;100970.00;;;;5111226;28;20285;-81
2023/07/26 00:17:27;;;;;;;3.22;1.80;;;;;20.90;100968.00;;;;5105663;28;20281;-81
2023/07/26 00:19:54;;;;;;;2.35;1.52;;;;;20.90;100975.00;;;;5091336;28;20293;-81
2023/07/26 00:22:22;;;;;;;2.22;1.45;;;;;20.90;100964.00;;;;5090649;28;20301;-81
2023/07/26 00:24:50;;;;;;;2.63;1.48;;;;;20.90;100973.00;;;;5090319;28;20277;-81
2023/07/26 00:27:18;;;;;;;1.70;1.60;;;;;20.80;100979.00;;;;5090932;28;20262;-81
2023/07/26 00:29:45;;;;;;;3.70;1.50;;;;;20.80;100980.00;;;;5090620;28;20249;-82
2023/07/26 00:32:13;;;;;;;2.60;2.00;;;;;20.80;100969.00;;;;5090621;28;20249;-81
2023/07/26 00:34:40;;;;;;;3.22;1.50;;;;;20.70;100971.00;;;;5090632;28;20281;-81
2023/07/26 00:37:07;;;;;;;1.67;1.52;;;;;20.70;100972.00;;;;5090232;28;20293;-81
2023/07/26 00:39:35;;;;;;;1.65;1.55;;;;;20.70;100969.00;;;;5089898;28;20272;-81
2023/07/26 00:42:04;;;;;;;3.00;1.75;;;;;20.60;100972.00;;;;5090442;28;20321;-81
2023/07/26 00:44:31;;;;;;;1.30;1.20;;;;;20.60;100972.00;;;;5089592;28;20611;-81
2023/07/26 00:46:59;;;;;;;2.45;1.60;;;;;20.60;100971.00;;;;5090424;28;20202;-81
2023/07/26 00:49:27;;;;;;;1.83;1.58;;;;;20.50;100973.00;;;;5089409;28;20271;-81
2023/07/26 00:51:54;;;;;;;2.08;1.83;;;;;20.50;100972.00;;;;5098013;28;20284;-81
2023/07/26 00:54:23;;;;;;;2.90;1.45;;;;;20.40;100969.00;;;;5110181;28;20316;-81
2023/07/26 00:56:50;;;;;;;2.17;1.50;;;;;20.40;100970.00;;;;5109819;28;20315;-81
2023/07/26 00:59:19;;;;;;;2.13;1.30;;;;;20.40;100968.00;;;;5110472;28;20296;-81
2023/07/26 01:01:47;;;;;;;1.30;1.02;;;;;20.30;100972.00;;;;5109566;28;20288;-79
2023/07/26 01:04:14;;;;;;;1.70;1.00;;;;;20.30;100968.00;;;;5109574;28;20289;-81
2023/07/26 01:06:47;;;;;;;1.75;1.27;;;;;20.20;100971.00;;;;5108998;28;20757;-81
2023/07/26 01:09:25;;;;;;;1.90;1.27;;;;;20.10;100972.00;;;;5108639;28;20203;-81
2023/07/26 01:12:02;;;;;;;3.08;1.10;;;;;20.10;100971.00;;;;5110183;28;20205;-81
2023/07/26 01:14:36;;;;;;;1.60;1.40;;;;;20.10;100972.00;;;;5108547;28;20264;-81
2023/07/26 01:17:04;;;;;;;0.98;0.88;;;;;20.10;100974.00;;;;5109911;28;20710;-81
2023/07/26 01:19:32;;;;;;;1.33;1.10;;;;;20.00;100965.00;;;;5109544;28;20198;-81
2023/07/26 01:22:00;;;;;;;2.13;1.35;;;;;20.00;100970.00;;;;5109891;28;20300;-81
2023/07/26 01:24:28;;;;;;;1.75;1.08;;;;;20.00;100962.00;;;;5109709;28;20245;-81
2023/07/26 01:26:55;;;;;;;1.40;0.95;;;;;19.90;100971.00;;;;5092383;28;20731;-81
2023/07/26 01:29:23;;;;;;;1.52;1.05;;;;;19.90;100966.00;;;;5089049;28;20321;-81
2023/07/26 01:31:51;;;;;;;1.35;1.08;;;;;19.80;100962.00;;;;5089030;28;20281;-81
2023/07/26 01:34:18;;;;;;;1.58;1.00;;;;;19.80;100959.00;;;;5089405;28;20317;-81
2023/07/26 01:36:47;;;;;;;2.00;1.17;;;;;19.70;100955.00;;;;5090130;28;20198;-81
2023/07/26 01:39:16;;;;;;;2.05;1.20;;;;;19.70;100964.00;;;;5090011;28;20297;-81
2023/07/26 01:41:44;;;;;;;1.23;0.90;;;;;19.60;100960.00;;;;5089113;28;20258;-81
2023/07/26 01:44:12;;;;;;;2.63;1.67;;;;;19.60;100958.00;;;;5089613;28;20233;-81
2023/07/26 01:46:40;;;;;;;1.20;1.10;;;;;19.60;100958.00;;;;5088581;28;20234;-81
2023/07/26 01:49:07;;;;;;;4.32;1.70;;;;;19.50;100958.00;;;;5107237;28;20630;-81
2023/07/26 01:51:34;;;;;;;0.82;0.82;;;;;19.50;100958.00;;;;5108374;28;20292;-81
2023/07/26 01:54:02;;;;;;;1.30;1.10;;;;;19.40;100951.00;;;;5108367;28;20252;-80
2023/07/26 01:56:31;;;;;;;1.77;1.40;;;;;19.40;100964.00;;;;5107973;28;20574;-81
2023/07/26 01:58:58;;;;;;;2.60;1.10;;;;;19.40;100962.00;;;;5107649;28;20194;-80
2023/07/26 02:01:26;;;;;;;1.75;1.23;;;;;19.30;100961.00;;;;5088237;28;20275;-82
2023/07/26 02:03:53;;;;;;;2.08;1.15;;;;;19.30;100964.00;;;;5088942;28;20534;-82
2023/07/26 02:06:20;;;;;;;1.67;1.27;;;;;19.30;100970.00;;;;5088714;28;20222;-81
2023/07/26 02:08:48;;;;;;;1.45;1.30;;;;;19.20;100971.00;;;;5088511;28;20583;-81
2023/07/26 02:11:15;;;;;;;2.72;1.20;;;;;19.20;100961.00;;;;5090011;28;20198;-82
2023/07/26 02:13:44;;;;;;;1.90;1.40;;;;;19.20;100962.00;;;;5108444;28;20396;-82
2023/07/26 02:16:11;;;;;;;2.35;1.30;;;;;19.20;100958.00;;;;5105448;28;20292;-82
2023/07/26 02:18:39;;;;;;;1.90;1.50;;;;;19.10;100961.00;;;;5088462;28;20312;-81
2023/07/26 02:21:06;;;;;;;2.08;1.58;;;;;19.10;100961.00;;;;5088480;28;20660;-82
2023/07/26 02:23:34;;;;;;;2.00;1.48;;;;;19.00;100961.00;;;;5088897;28;20225;-82
2023/07/26 02:26:01;;;;;;;2.25;1.55;;;;;19.00;100960.00;;;;5092663;28;20735;-81
2023/07/26 02:28:28;;;;;;;1.75;1.27;;;;;19.00;100959.00;;;;5092180;28;20290;-82
2023/07/26 02:30:57;;;;;;;1.92;1.45;;;;;18.90;100962.00;;;;5092948;28;20296;-82
2023/07/26 02:33:24;;;;;;;2.13;1.33;;;;;18.90;100961.00;;;;5093207;28;20312;-81
2023/07/26 02:35:52;;;;;;;1.85;1.50;;;;;18.90;100957.00;;;;5092177;28;20333;-82
2023/07/26 02:38:19;;;;;;;1.30;1.15;;;;;18.90;100955.00;;;;5091916;28;20734;-82
2023/07/26 02:40:47;;;;;;;1.40;1.10;;;;;18.80;100955.00;;;;5092589;28;20277;-81
2023/07/26 02:43:14;;;;;;;1.60;1.35;;;;;18.80;100954.00;;;;5092322;28;20285;-82
2023/07/26 02:45:42;;;;;;;1.85;1.33;;;;;18.80;100944.00;;;;5092114;28;20293;-82
2023/07/26 02:48:11;;;;;;;3.08;1.33;;;;;18.70;100951.00;;;;5101061;28;20637;-81
2023/07/26 02:50:39;;;;;;;2.10;1.27;;;;;18.70;100948.00;;;;5111491;28;20347;-81
2023/07/26 02:53:06;;;;;;;1.70;1.58;;;;;18.70;100945.00;;;;5112201;28;20738;-82
2023/07/26 02:55:33;;;;;;;1.85;1.30;;;;;18.60;100954.00;;;;5112787;28;20281;-81
2023/07/26 02:58:01;;;;;;;2.00;1.83;;;;;18.60;100946.00;;;;5112893;28;20280;-81
2023/07/26 03:00:28;;;;;;;2.10;1.52;;;;;18.60;100960.00;;;;5111467;28;21296;-81
2023/07/26 03:02:56;;;;;;;2.40;2.00;;;;;18.60;100953.00;;;;5113212;28;20663;-81
2023/07/26 03:05:24;;;;;;;1.92;1.52;;;;;18.50;100950.00;;;;5112458;28;20241;-81
2023/07/26 03:07:52;;;;;;;1.70;1.60;;;;;18.50;100948.00;;;;5103916;28;20273;-82
2023/07/26 03:10:19;;;;;;;2.97;1.42;;;;;18.50;100950.00;;;;5092165;28;20286;-81
2023/07/26 03:12:47;;;;;;;3.08;1.65;;;;;18.50;100954.00;;;;5092036;28;20226;-81
2023/07/26 03:15:14;;;;;;;1.80;1.60;;;;;18.40;100948.00;;;;5091710;28;20313;-82
2023/07/26 03:17:41;;;;;;;1.75;1.50;;;;;18.40;100953.00;;;;5111398;28;20658;-81
2023/07/26 03:20:09;;;;;;;2.72;1.90;;;;;18.40;100949.00;;;;5112958;28;20284;-81
2023/07/26 03:22:38;;;;;;;2.42;1.42;;;;;18.30;100950.00;;;;5111432;28;20284;-82
2023/07/26 03:25:07;;;;;;;2.28;1.90;;;;;18.30;100951.00;;;;5101846;28;20279;-82
2023/07/26 03:27:34;;;;;;;1.75;1.58;;;;;18.30;100957.00;;;;5091486;28;20302;-81
2023/07/26 03:30:01;;;;;;;1.63;1.50;;;;;18.30;100954.00;;;;5091808;28;20762;-81
2023/07/26 03:32:29;;;;;;;2.05;1.77;;;;;18.30;100961.00;;;;5091501;28;20297;-81
2023/07/26 03:34:56;;;;;;;2.28;1.63;;;;;18.20;100963.00;;;;5092144;28;20279;-81
2023/07/26 03:37:24;;;;;;;1.92;1.73;;;;;18.20;100957.00;;;;5090301;28;20293;-81
2023/07/26 03:39:52;;;;;;;2.30;1.52;;;;;18.20;100962.00;;;;5091688;28;20285;-81
2023/07/26 03:42:20;;;;;;;2.67;1.85;;;;;18.20;100961.00;;;;5091723;28;20321;-81
2023/07/26 03:44:47;;;;;;;2.60;1.90;;;;;18.20;100962.00;;;;5091377;28;20642;-81
2023/07/26 03:47:15;;;;;;;2.92;1.90;;;;;18.10;100965.00;;;;5093432;28;20277;-81
2023/07/26 03:49:42;;;;;;;3.28;1.98;;;;;18.10;100968.00;;;;5111935;28;20332;-82
2023/07/26 03:52:10;;;;;;;2.10;1.85;;;;;18.10;100966.00;;;;5111836;28;20642;-81
2023/07/26 03:54:37;;;;;;;2.65;1.90;;;;;18.10;100961.00;;;;5110901;28;20312;-82
2023/07/26 03:57:07;;;;;;;2.47;2.20;;;;;18.10;100960.00;;;;5111417;28;20277;-81
2023/07/26 03:59:35;;;;;;;2.28;2.08;;;;;18.10;100960.00;;;;5109716;28;20655;-81
2023/07/26 04:02:02;;;;;;;3.35;2.20;;;;;18.10;100960.00;;;;5111395;28;20296;-82
2023/07/26 04:04:30;;;;;;;3.20;2.50;;;;;18.10;100954.00;;;;5110784;28;20738;-84
2023/07/26 04:06:57;;;;;;;3.45;2.30;;;;;18.10;100958.00;;;;5111679;28;20371;-81
2023/07/26 04:09:24;;;;;;;3.17;2.50;;;;;18.10;100957.00;;;;5110669;28;20348;-82
2023/07/26 04:11:56;;;;;;;3.50;2.55;;;;;18.10;100951.00;;;;5110879;28;20613;-81
2023/07/26 04:14:24;;;;;;;2.53;2.28;;;;;18.10;100950.00;;;;5110218;28;20581;-82
2023/07/26 04:16:52;;;;;;;6.07;3.42;;;;;18.10;100958.00;;;;5106164;28;20638;-82
2023/07/26 04:19:20;;;;;;;4.85;2.90;;;;;18.20;100955.00;;;;5110289;28;20288;-81
2023/07/26 04:21:47;;;;;;;3.35;2.80;;;;;18.20;100954.00;;;;5110768;28;20285;-82
2023/07/26 04:24:15;;;;;;;3.65;2.63;;;;;18.20;100956.00;;;;5110987;28;20274;-81
2023/07/26 04:26:42;;;;;;;4.13;3.03;;;;;18.20;100951.00;;;;5109634;28;20244;-82
2023/07/26 04:29:09;;;;;;;3.20;2.90;;;;;18.20;100945.00;;;;5110297;28;20779;-81
2023/07/26 04:31:38;;;;;;;4.13;3.15;;;;;18.30;100951.00;;;;5110374;28;20281;-81
2023/07/26 04:34:06;;;;;;;4.00;3.05;;;;;18.30;100947.00;;;;5091705;28;20257;-82
2023/07/26 04:36:33;;;;;;;3.40;3.00;;;;;18.30;100943.00;;;;5089598;28;20326;-82
2023/07/26 04:39:00;;;;;;;4.57;3.08;;;;;18.40;100946.00;;;;5089849;28;20289;-81
2023/07/26 04:41:28;;;;;;;3.80;3.40;;;;;18.40;100946.00;;;;5089380;28;20241;-81
2023/07/26 04:43:55;;;;;;;5.55;2.78;;;;;18.40;100943.00;;;;5089615;28;20297;-82
2023/07/26 04:46:23;;;;;;;3.55;3.25;;;;;18.50;100943.00;;;;5090269;28;20285;-81
2023/07/26 04:48:52;;;;;;;5.03;3.20;;;;;18.50;100947.00;;;;5104550;28;20280;-82
2023/07/26 04:51:21;;;;;;;4.38;3.47;;;;;18.50;100945.00;;;;5089387;28;20791;-81
2023/07/26 04:53:48;;;;;;;3.88;3.58;;;;;18.50;100954.00;;;;5089404;28;20205;-82
2023/07/26 04:56:16;;;;;;;3.47;3.17;;;;;18.60;100964.00;;;;5100336;28;20731;-82
2023/07/26 04:58:44;;;;;;;5.07;3.58;;;;;18.60;100959.00;;;;5109207;28;20201;-82
2023/07/26 05:01:11;;;;;;;3.53;3.22;;;;;18.70;100957.00;;;;5110044;28;20288;-82
2023/07/26 05:03:39;;;;;;;3.97;3.58;;;;;18.70;100956.00;;;;5109558;28;20370;-81
2023/07/26 05:06:08;;;;;;;3.60;2.97;;;;;18.70;100961.00;;;;5106893;28;20201;-82
2023/07/26 05:08:35;;;;;;;4.25;3.50;;;;;18.80;100964.00;;;;5088624;28;20265;-81
2023/07/26 05:11:02;;;;;;;4.47;3.33;;;;;18.80;100966.00;;;;5088973;28;20793;-82
2023/07/26 05:13:30;;;;;;;3.70;3.35;;;;;18.90;100968.00;;;;5088869;28;20269;-82
2023/07/26 05:15:57;;;;;;;5.07;3.42;;;;;19.00;100960.00;;;;5092768;28;20769;-82
2023/07/26 05:18:25;;;;;;;4.85;3.78;;;;;19.00;100962.00;;;;5109367;28;20285;-82
2023/07/26 05:20:53;;;;;;;3.88;3.47;;;;;19.10;100966.00;;;;5110124;28;20297;-82
2023/07/26 05:23:22;;;;;;;4.03;3.60;;;;;19.20;100967.00;;;;5105011;28;20246;-82
2023/07/26 05:25:49;;;;;;;4.28;3.28;;;;;19.20;100966.00;;;;5089067;28;20628;-81
2023/07/26 05:28:16;;;;;;;3.50;3.17;;;;;19.30;100964.00;;;;5088750;28;20221;-82
2023/07/26 05:30:44;;;;;;;4.40;3.45;;;;;19.40;100963.00;;;;5088521;28;21013;-82
2023/07/26 05:33:11;;;;;;;4.53;3.10;;;;;19.40;100961.00;;;;5088233;28;20281;-82
2023/07/26 05:35:40;;;;;;;3.75;3.45;;;;;19.50;100964.00;;;;5088204;28;20739;-81
2023/07/26 05:38:07;;;;;;;3.92;3.25;;;;;19.60;100965.00;;;;5088745;28;20289;-82
2023/07/26 05:40:36;;;;;;;3.30;3.00;;;;;19.60;100962.00;;;;5088748;28;20241;-82
2023/07/26 05:43:04;;;;;;;3.88;3.17;;;;;19.70;100966.00;;;;5088376;28;20241;-82
2023/07/26 05:45:31;;;;;;;3.90;3.33;;;;;19.80;100973.00;;;;5089015;28;20256;-82
2023/07/26 05:47:58;;;;;;;4.32;3.13;;;;;19.80;100964.00;;;;5096996;28;20237;-82
2023/07/26 05:50:26;;;;;;;3.60;3.30;;;;;19.90;100971.00;;;;5108348;28;20629;-81
2023/07/26 05:52:53;;;;;;;4.03;3.35;;;;;20.00;100970.00;;;;5108997;28;20236;-82
2023/07/26 05:55:21;;;;;;;4.15;3.58;;;;;20.10;100984.00;;;;5108219;28;20261;-82
2023/07/26 05:57:49;;;;;;;2.83;2.63;;;;;20.10;101003.00;;;;5108464;28;20248;-82
2023/07/26 06:00:19;;;;;;;3.60;2.88;;;;;20.10;101008.00;;;;5108219;28;20297;-82
2023/07/26 06:02:46;;;;;;;4.00;3.28;;;;;20.20;101007.00;;;;5108680;28;20280;-82
2023/07/26 06:05:13;;;;;;;3.17;2.88;;;;;20.20;101012.00;;;;5108495;28;20297;-82
2023/07/26 06:07:41;;;;;;;3.38;2.88;;;;;20.20;101003.00;;;;5107818;28;20261;-82
2023/07/26 06:10:09;;;;;;;2.80;2.55;;;;;20.30;101016.00;;;;5108893;28;20297;-82
2023/07/26 06:12:37;;;;;;;4.78;2.85;;;;;20.30;101016.00;;;;5108121;28;20697;-82
2023/07/26 06:15:07;;;;;;;4.00;3.20;;;;;20.30;101022.00;;;;5107670;28;20319;-82
2023/07/26 06:17:34;;;;;;;3.65;2.80;;;;;20.30;101022.00;;;;5108087;28;20288;-82
2023/07/26 06:20:03;;;;;;;3.50;3.03;;;;;20.30;101031.00;;;;5107996;28;20246;-82
2023/07/26 06:22:31;;;;;;;4.07;2.97;;;;;20.30;101044.00;;;;5107678;28;20193;-81
2023/07/26 06:24:58;;;;;;;4.47;2.83;;;;;20.30;101046.00;;;;5107568;28;20297;-81
2023/07/26 06:27:31;;;;;;;3.65;3.05;;;;;20.30;101049.00;;;;5107385;28;20700;-81
2023/07/26 06:29:59;;;;;;;4.03;3.22;;;;;20.40;101051.00;;;;5107444;28;20225;-81
2023/07/26 06:32:27;;;;;;;6.07;3.15;;;;;20.40;101067.00;;;;5094023;28;20623;-81
2023/07/26 06:34:56;;;;;;;3.72;3.22;;;;;20.40;101076.00;;;;5088045;28;20321;-81
2023/07/26 06:37:24;;;;;;;4.32;3.30;;;;;20.40;101089.00;;;;5087484;28;20206;-81
2023/07/26 06:39:51;;;;;;;4.72;3.60;;;;;20.40;101101.00;;;;5087638;28;20618;-81
2023/07/26 06:42:19;;;;;;;4.95;3.85;;;;;20.30;101099.00;;;;5087900;28;20280;-82
2023/07/26 06:44:46;;;;;;;4.95;3.50;;;;;20.30;101107.00;;;;5087270;28;20297;-83
2023/07/26 06:47:13;;;;;;;3.88;2.85;;;;;20.30;101095.00;;;;5090184;28;20285;-83
2023/07/26 06:49:42;;;;;;;3.72;1.98;;;;;20.20;101094.00;;;;5106516;28;20297;-82
2023/07/26 06:52:10;;;;;;;3.15;2.03;;;;;20.20;101081.00;;;;5108564;28;20277;-83
2023/07/26 06:54:38;;;;;;;3.25;1.25;;;;;20.20;101076.00;;;;5107640;28;20198;-84
2023/07/26 06:57:06;;;;;;;1.80;1.40;;;;;20.10;101079.00;;;;5108564;28;20256;-83
2023/07/26 06:59:34;;;;;;;2.78;1.48;;;;;20.10;101080.00;;;;5107195;28;20280;-83
2023/07/26 07:02:01;;;;;;;2.05;1.80;;;;;20.10;101079.00;;;;5108292;28;20292;-84
2023/07/26 07:04:28;;;;;;;3.35;1.77;;;;;20.10;101074.00;;;;5108125;28;20282;-83
2023/07/26 07:06:57;;;;;;;2.42;1.65;;;;;20.00;101071.00;;;;5107197;28;20256;-83
2023/07/26 07:09:25;;;;;;;2.60;1.90;;;;;20.10;101058.00;;;;5107946;28;20312;-84
2023/07/26 07:11:52;;;;;;;2.75;1.20;;;;;20.00;101051.00;;;;5109167;28;20293;-83
2023/07/26 07:14:20;;;;;;;3.13;1.90;;;;;20.00;101056.00;;;;5111350;28;20320;-83
2023/07/26 07:16:47;;;;;;;2.65;1.80;;;;;20.00;101055.00;;;;5111247;28;20257;-82
2023/07/26 07:19:15;;;;;;;2.85;1.73;;;;;20.00;101055.00;;;;5112085;28;20284;-82
2023/07/26 07:21:44;;;;;;;2.85;2.15;;;;;20.00;101057.00;;;;5112278;28;20727;-83
2023/07/26 07:24:13;;;;;;;2.20;2.00;;;;;20.00;101062.00;;;;5110815;28;20209;-82
2023/07/26 07:26:40;;;;;;;3.28;1.98;;;;;20.00;101063.00;;;;5111704;28;20202;-83
2023/07/26 07:29:08;;;;;;;4.38;2.70;;;;;20.10;101062.00;;;;5112389;28;20225;-83
2023/07/26 07:31:35;;;;;;;3.40;2.63;;;;;20.20;101061.00;;;;5111623;28;20292;-82
2023/07/26 07:34:03;;;;;;;2.88;2.58;;;;;20.20;101062.00;;;;5111135;28;20205;-83
2023/07/26 07:36:30;;;;;;;4.68;2.60;;;;;20.30;101055.00;;;;5112052;28;20308;-83
2023/07/26 07:38:58;;;;;;;3.50;2.60;;;;;20.40;101060.00;;;;5110549;28;20229;-83
2023/07/26 07:41:27;;;;;;;2.40;2.10;;;;;20.50;101068.00;;;;5111384;28;20216;-83
2023/07/26 07:43:54;;;;;;;3.83;2.97;;;;;20.60;101067.00;;;;5112059;28;20229;-83
2023/07/26 07:46:21;;;;;;;2.35;2.15;;;;;20.70;101060.00;;;;5111527;28;20372;-83
2023/07/26 07:48:49;;;;;;;2.28;1.80;;;;;20.80;101061.00;;;;5111691;28;20276;-83
2023/07/26 07:51:16;;;;;;;2.90;1.85;;;;;20.90;101060.00;;;;5110775;28;20795;-82
2023/07/26 07:53:44;;;;;;;3.35;1.60;;;;;21.00;101054.00;;;;5111617;28;20284;-83
2023/07/26 07:56:11;;;;;;;1.80;1.60;;;;;21.10;101060.00;;;;5110671;28;20261;-83
2023/07/26 07:58:40;;;;;;;1.77;1.50;;;;;21.30;101056.00;;;;5110089;28;20359;-83
2023/07/26 08:01:07;;;;;;;2.25;1.60;;;;;21.40;101061.00;;;;5111373;28;20197;-83
2023/07/26 08:03:35;;;;;;;2.15;1.73;;;;;21.50;101060.00;;;;5111130;28;20265;-83
2023/07/26 08:06:02;;;;;;;1.70;1.52;;;;;21.70;101070.00;;;;5111682;28;20201;-83
2023/07/26 08:08:30;;;;;;;2.47;1.77;;;;;21.80;101066.00;;;;5111043;28;20229;-82
2023/07/26 08:10:57;;;;;;;4.90;1.98;;;;;21.90;101068.00;;;;5110948;28;20243;-82
2023/07/26 08:13:24;;;;;;;3.08;2.47;;;;;22.00;101063.00;;;;5106536;28;20731;-82
2023/07/26 08:15:53;;;;;;;6.10;2.40;;;;;22.10;101058.00;;;;5090801;28;20312;-83
2023/07/26 08:18:21;;;;;;;3.67;2.75;;;;;22.20;101066.00;;;;5111033;28;20722;-83
2023/07/26 08:20:48;;;;;;;3.55;2.55;;;;;22.30;101066.00;;;;5111081;28;20300;-83
2023/07/26 08:23:16;;;;;;;4.05;2.67;;;;;22.40;101061.00;;;;5110289;28;20636;-83
2023/07/26 08:25:43;;;;;;;4.38;3.10;;;;;22.50;101066.00;;;;5111103;28;20228;-83
2023/07/26 08:28:11;;;;;;;6.32;3.25;;;;;22.60;101070.00;;;;5110385;28;20302;-81
2023/07/26 08:30:38;;;;;;;4.68;2.97;;;;;22.70;101067.00;;;;5103479;28;20638;-83
2023/07/26 08:33:07;;;;;;;4.55;3.30;;;;;22.80;101071.00;;;;5091188;28;20285;-84
2023/07/26 08:35:35;;;;;;;3.95;2.80;;;;;22.90;101072.00;;;;5090187;28;20356;-82
2023/07/26 08:38:03;;;;;;;3.60;2.97;;;;;23.10;101073.00;;;;5089628;28;20329;-81
2023/07/26 08:40:30;;;;;;;4.82;2.95;;;;;23.10;101073.00;;;;5089382;28;20214;-82
2023/07/26 08:42:58;;;;;;;3.45;2.90;;;;;23.20;101077.00;;;;5089259;28;20289;-82
2023/07/26 08:45:27;;;;;;;3.90;2.95;;;;;23.30;101070.00;;;;5089349;28;20292;-83
2023/07/26 08:47:55;;;;;;;4.40;2.92;;;;;23.40;101068.00;;;;5098176;28;20281;-83
2023/07/26 08:50:24;;;;;;;3.28;2.50;;;;;23.50;101063.00;;;;5109472;28;20221;-82
2023/07/26 08:52:52;;;;;;;6.18;3.50;;;;;23.60;101071.00;;;;5109652;28;20276;-82
2023/07/26 08:55:20;;;;;;;3.92;3.13;;;;;23.70;101060.00;;;;5109391;28;20316;-81
2023/07/26 08:57:47;;;;;;;4.35;3.33;;;;;23.80;101061.00;;;;5108816;28;20232;-82
2023/07/26 09:00:15;;;;;;;6.45;3.05;;;;;23.80;101061.00;;;;5109867;28;20288;-82
2023/07/26 09:02:46;;;;;;;5.55;2.90;;;;;23.90;101057.00;;;;5109153;28;20240;-82
2023/07/26 09:05:14;;;;;;;3.20;2.40;;;;;24.00;101061.00;;;;5097598;28;20217;-83
2023/07/26 09:07:43;;;;;;;3.30;2.28;;;;;24.00;101055.00;;;;5088727;28;20256;-82
2023/07/26 09:10:10;;;;;;;4.00;2.40;;;;;24.00;101047.00;;;;5089658;28;20295;-83
2023/07/26 09:12:38;;;;;;;4.18;2.78;;;;;24.10;101048.00;;;;5088712;28;20628;-83
2023/07/26 09:15:07;;;;;;;4.50;2.15;;;;;24.10;101045.00;;;;5089007;28;20277;-81
2023/07/26 09:17:39;;;;;;;3.42;2.45;;;;;24.10;101049.00;;;;5101876;28;20280;-81
2023/07/26 09:20:20;;;;;;;4.70;2.47;;;;;24.20;101040.00;;;;5109311;28;20197;-83
2023/07/26 09:22:54;;;;;;;4.15;2.38;;;;;24.30;101040.00;;;;5092536;28;20202;-81
2023/07/26 09:25:32;;;;;;;5.10;2.65;;;;;24.30;101049.00;;;;5088528;28;20202;-80
2023/07/26 09:27:59;;;;;;;4.75;2.30;;;;;24.40;101053.00;;;;5088934;28;20570;-80
2023/07/26 09:30:27;;;;;;;4.15;2.45;;;;;24.30;101055.00;;;;5088399;28;20201;-81
2023/07/26 09:32:56;;;;;;;3.58;1.98;;;;;24.30;101054.00;;;;5088635;28;20285;-80
2023/07/26 09:35:24;;;;;;;2.80;2.00;;;;;24.30;101053.00;;;;5087567;28;20297;-81
2023/07/26 09:37:53;;;;;;;2.70;1.85;;;;;24.20;101054.00;;;;5089118;28;20635;-81
2023/07/26 09:40:32;;;;;;;4.90;2.00;;;;;24.10;101049.00;;;;5088691;28;20282;-80
2023/07/26 09:43:00;;;;;;;2.10;1.42;;;;;24.20;101048.00;;;;5088233;28;20205;-81
2023/07/26 09:45:28;;;;;;;2.50;1.92;;;;;24.20;101055.00;;;;5088029;28;20205;-81
2023/07/26 09:48:06;;;;;;;6.72;1.95;;;;;24.10;101055.00;;;;5097753;28;20224;-81
2023/07/26 09:50:35;;;;;;;2.88;1.83;;;;;24.10;101056.00;;;;5108518;28;20201;-83
2023/07/26 09:53:05;;;;;;;1.67;1.40;;;;;24.10;101059.00;;;;5108905;28;20686;-81
2023/07/26 09:55:33;;;;;;;5.22;1.80;;;;;24.10;101055.00;;;;5107231;28;21104;-81
2023/07/26 09:58:04;;;;;;;2.22;1.60;;;;;24.20;101060.00;;;;5109033;28;20636;-81
2023/07/26 10:00:33;;;;;;;2.22;1.25;;;;;24.20;101054.00;;;;5108634;28;20190;-80
2023/07/26 10:03:04;;;;;;;3.20;1.55;;;;;24.20;101055.00;;;;5108403;28;20280;-80
2023/07/26 10:05:36;;;;;;;2.55;1.73;;;;;24.20;101051.00;;;;5108247;28;20197;-81
2023/07/26 10:08:06;;;;;;;2.38;1.48;;;;;24.30;101050.00;;;;5108523;28;20229;-81
2023/07/26 10:10:33;;;;;;;1.70;1.20;;;;;24.50;101054.00;;;;5108173;28;20582;-81
2023/07/26 10:13:02;;;;;;;2.83;1.50;;;;;24.60;101045.00;;;;5107484;28;20288;-81
2023/07/26 10:15:31;;;;;;;2.35;1.58;;;;;24.70;101047.00;;;;5107693;28;20244;-81
2023/07/26 10:18:00;;;;;;;1.70;1.23;;;;;24.80;101048.00;;;;5108400;28;20262;-82
2023/07/26 10:20:28;;;;;;;2.53;1.27;;;;;25.00;101050.00;;;;5108637;28;20463;-81
2023/07/26 10:23:03;;;;;;;1.90;1.35;;;;;25.10;101060.00;;;;5108991;28;20233;-82
2023/07/26 10:25:33;;;;;;;2.17;1.60;;;;;25.20;101065.00;;;;5108155;28;20272;-81
2023/07/26 10:28:01;;;;;;;2.05;1.40;;;;;25.30;101064.00;;;;5107923;28;20201;-81
2023/07/26 10:30:29;;;;;;;1.80;1.23;;;;;25.40;101057.00;;;;5094308;28;20310;-81
2023/07/26 10:32:59;;;;;;;1.70;1.40;;;;;25.40;101054.00;;;;5088395;28;20289;-82
2023/07/26 10:35:29;;;;;;;2.97;1.67;;;;;25.50;101048.00;;;;5088270;28;20296;-81
2023/07/26 10:37:59;;;;;;;2.55;1.42;;;;;25.60;101059.00;;;;5088021;28;20293;-81
2023/07/26 10:40:32;;;;;;;1.88;1.20;;;;;25.60;101058.00;;;;5087486;28;20194;-81
2023/07/26 10:43:00;;;;;;;3.08;1.42;;;;;25.70;101059.00;;;;5087756;28;20422;-82
2023/07/26 10:45:49;;;;;;;2.53;1.73;;;;;25.60;101055.00;;;;5088873;28;20294;-81
2023/07/26 10:48:31;;;;;;;2.83;1.30;;;;;25.70;101050.00;;;;5111618;28;20630;-81
2023/07/26 10:50:59;;;;;;;2.15;1.45;;;;;25.80;101057.00;;;;5112236;28;20297;-81
2023/07/26 10:53:32;;;;;;;2.22;1.23;;;;;25.80;101052.00;;;;5112366;28;20237;-81
2023/07/26 10:56:12;;;;;;;2.35;1.52;;;;;25.80;101053.00;;;;5111954;28;20682;-81
2023/07/26 10:58:50;;;;;;;3.35;1.52;;;;;25.80;101061.00;;;;5111302;28;20284;-81
2023/07/26 11:01:37;;;;;;;4.50;1.25;;;;;25.80;101048.00;;;;5111373;28;20208;-81
2023/07/26 11:04:12;;;;;;;1.60;1.20;;;;;26.00;101057.00;;;;5101640;28;20675;-81
2023/07/26 11:06:53;;;;;;;1.70;1.13;;;;;26.00;101060.00;;;;5090940;28;20222;-82
2023/07/26 11:09:24;;;;;;;1.75;1.13;;;;;26.10;101064.00;;;;5091409;28;20262;-81
2023/07/26 11:11:58;;;;;;;2.40;1.02;;;;;26.10;101059.00;;;;5090993;28;20190;-81
2023/07/26 11:14:26;;;;;;;1.58;1.08;;;;;26.20;101049.00;;;;5090335;28;20202;-81
2023/07/26 11:16:54;;;;;;;2.05;1.13;;;;;26.30;101059.00;;;;5098427;28;20308;-82
2023/07/26 11:19:21;;;;;;;2.33;1.25;;;;;26.40;101063.00;;;;5110988;28;20284;-82
2023/07/26 11:21:49;;;;;;;1.67;1.20;;;;;26.50;101067.00;;;;5094174;28;20297;-82
2023/07/26 11:24:16;;;;;;;2.20;1.20;;;;;26.60;101059.00;;;;5091502;28;20198;-81
2023/07/26 11:26:47;;;;;;;2.58;1.48;;;;;26.50;101077.00;;;;5091136;28;20225;-81
2023/07/26 11:29:16;;;;;;;2.50;1.33;;;;;26.50;101068.00;;;;5090783;28;20292;-82
2023/07/26 11:31:44;;;;;;;1.60;1.10;;;;;26.50;101072.00;;;;5091579;28;20263;-83
2023/07/26 11:34:18;;;;;;;2.35;1.30;;;;;26.40;101064.00;;;;5091410;28;20289;-82
2023/07/26 11:36:46;;;;;;;2.78;1.15;;;;;26.40;101078.00;;;;5090896;28;20770;-82
2023/07/26 11:39:20;;;;;;;1.48;1.13;;;;;26.30;101084.00;;;;5090660;28;20486;-81
2023/07/26 11:41:48;;;;;;;1.73;1.10;;;;;26.40;101080.00;;;;5090671;28;20255;-82
2023/07/26 11:44:20;;;;;;;1.40;0.80;;;;;26.30;101080.00;;;;5090907;28;20234;-81
2023/07/26 11:46:48;;;;;;;3.83;1.67;;;;;26.30;101081.00;;;;5099420;28;20277;-81
2023/07/26 11:49:21;;;;;;;1.55;1.20;;;;;26.20;101082.00;;;;5111258;28;20320;-83
2023/07/26 11:51:49;;;;;;;2.00;1.35;;;;;26.30;101088.00;;;;5110579;28;20208;-82
2023/07/26 11:54:17;;;;;;;2.22;1.40;;;;;26.30;101080.00;;;;5110253;28;20232;-81
2023/07/26 11:56:45;;;;;;;2.97;1.45;;;;;26.30;101083.00;;;;5110392;28;20226;-81
2023/07/26 11:59:13;;;;;;;2.05;1.02;;;;;26.30;101086.00;;;;5111010;28;20270;-82
2023/07/26 12:01:42;;;;;;;2.42;1.30;;;;;26.30;101090.00;;;;5111133;28;20752;-81
2023/07/26 12:04:11;;;;;;;1.63;1.35;;;;;26.30;101093.00;;;;5110949;28;20640;-81
2023/07/26 12:06:40;;;;;;;4.63;1.83;;;;;26.30;101092.00;;;;5110053;28;20205;-82
2023/07/26 12:09:09;;;;;;;1.60;1.00;;;;;26.30;101094.00;;;;5110368;28;20233;-82
2023/07/26 12:11:38;;;;;;;1.65;1.40;;;;;26.30;101084.00;;;;5109647;28;20762;-81
2023/07/26 12:14:06;;;;;;;3.38;1.40;;;;;26.20;101090.00;;;;5110361;28;20867;-81